Orchard, TX (77464)

8:42 AM CDT on June 24, 2017 (GMT -0500)
Riverwood Forest | | Change Station
Active Advisory: Areal Flood Advisory Active Notice: Areal Flood Advisory

Elev 110 ft 29.65 °N, 95.93 °W | Updated 26 seconds ago

Rain
Rain
72.6 °F
Feels Like 72.6 °F
N
3.0
Wind Variable Wind from North

Today
High -- | Low -- °F
--% Chance of Precip.
Yesterday
High -- | Low -- °F
Precip. -- in
Pressure 30.02 in
Visibility 8.0 miles
Clouds Clear
Dew Point 72 °F
Humidity 98%
Rainfall 2.56 in
Snow Depth Not available.
6:25 AM 8:27 PM
New Moon, 0% visible
METAR KTME 241335Z AUTO 22004KT 8SM -RA CLR 24/23 A3002 RMK AO2
Pressure 30.02 in
Visibility 8.0 miles
Clouds Clear
Dew Point 72 °F
Humidity 98%
Rainfall 2.56 in
Snow Depth Not available.
6:25 AM 8:27 PM
New Moon, 0% visible
METAR KTME 241335Z AUTO 22004KT 8SM -RA CLR 24/23 A3002 RMK AO2

Get Your Daily Forecast Email!

Thanks for signing up!

Be on the lookout for a verification email in your inbox.

You'll start receiving severe weather alerts in your inbox..

×

10-Day Weather Forecast

Almanac

Astronomy

Jun. 24, 2017 Rise Set
Actual Time
Civil Twilight
Nautical Twilight
Astronomical Twilight
Moon
Length of Visible Light
Length of Day
Tomorrow will be .
, % of the Moon is Illuminated

Today's Extremes

State Highs State Lows

Community

WunderPhotos

Category 6

Welcome to Category 6. This is the collective home for Weather Underground's featured writeups by Dr. Jeff Masters (right), Bob Henson (left), Chris Burt, and other regular contributors.

Nearby

Air Quality

  Air Quality AQ Index Pollutant
Not available.

Snow Depth

Station Depth Elevation

Earthquake Activity

City Distance Mag. Time & Date
Minimum magnitude displayed is 2.5.

Coastal Water Temperatures

Place Temperature

Stations

Nearby Weather Stations

Station Location Temp. Windchill Dew Point Humidity Wind Precip. Elev Updated Type
                   

Watches & Warnings

Areal Flood Advisory
Issued: 7:50 AM CDT Jun. 24, 2017 – National Weather Service

The National Weather Service in League City has issued a

* flood advisory for...
southeastern Austin County in southeastern Texas...
northwestern Fort Bend County in southeastern Texas...
southern Waller County in southeastern Texas...

* until 845 am CDT.

* At 749 am CDT, Doppler radar indicated heavy rain due to slow
moving thunderstorms. Radar estimates 1 to 3 inches of rain has
fallen with moderate to heavy rain continuing. This will cause
minor flooding in the advisory area.

* Some locations that will experience flooding include...
northwestern Rosenberg, Katy, Sealy, Brookshire, Wallis, Fulshear,
Simonton, San Felipe, Pattison, Orchard, Weston lakes and Cinco
ranch.

Precautionary/preparedness actions...

Turn around, don't drown when encountering flooded roads. Most flood
deaths occur in vehicles.


Lat... Lon 2993 9601 2976 9579 2949 9596 2978 9617